Main page
METAR-TAF:

METAR-TAF

Airports :

Middleton Field

Evergreen, Alabama, United States

latitude: 31-25-08N, longitude: 087-02-53W, elevation: 256 ft

Current weather observation

The report was made 1 hour and 9 minutes ago, at 18:53 UTC
Wind 10 mph from the West/Southwest with gusts up to 23 mph
Temperature 81°F
Humidity 51%
Pressure 30.02 in. Hg
Visibility: 10 miles
Scattered clouds at a height of 4300 ft
Broken clouds at a height of 6000 ft

METAR: KGZH 281853Z AUTO 24009G20KT 10SM SCT043 BKN060 27/16 A3002 RMK AO2 PK WND 26027/1757 SLP161 T02670156

Time: 14:02 (20:02 UTC)


TAF: missing

Weather observations and forecasts of more than 4000 airports (METAR and TAF reports).

The available stations are represented by yellow and red dots on the map.

Hover mouse over dot to see the name of the station.

Then click to see weather observations and forecasts.

To change the map : click on the green buttons with a black cross to zoom in, on the green button with a dash to zoom out, or on the green arrows for adjacent maps.


METAR-TAF: